TAF Text Data
IDs:
Format:
Raw Decoded Include METAR

Data at: 2207 UTC 25 Apr 2019

TAF ETSI 251310Z 2514/2523 16008G18KT 9999 NSW FEW130 SCT240 BKN300
  BECMG 2520/2522 27005KT 9999 NSW FEW130 SCT240 BKN300 CANCEL 1420